La Jara, New Mexico
Current Conditions -  °F | °C
As of 5:15 PM on Thursday 27 Nov 2014 (Local Time) from KLAM Reporting Station
Clear Clear  
Wind Chill: 50°   Ceiling: Unl
Heat Index: 50°   Visibility: 10mi
Dew Point: 21°   Wind: 6mph
Humidity: 32%   Direction: 190°S
Pressure: 30.39"   Gusts: NA
Location:  36.09°N, 106.97°W
Report Text: KLAM 280015Z AUTO 19005KT 10SM CLR 10/M06 A3039 RMK AO2 T01011059
Loading
Personal Weather Stations






























Interactive Weather Map New forecast layout! Learn more

10-Day Weather Forecast

Advertisements
Track Severe Weather on mobile